sensor_id;sensor_type;location;lat;lon;timestamp;pressure;altitude;pressure_sealevel;temperature;humidity
60019;BME280;45870;42.528;26.740;2022-11-15T00:01:26;100418.72;;;16.78;46.91
60019;BME280;45870;42.528;26.740;2022-11-15T00:03:52;100465.03;;;17.58;46.03
60019;BME280;45870;42.528;26.740;2022-11-15T00:06:17;100453.06;;;18.06;44.25
60019;BME280;45870;42.528;26.740;2022-11-15T00:08:43;100462.84;;;17.60;45.36
60019;BME280;45870;42.528;26.740;2022-11-15T00:11:11;100469.09;;;17.92;44.63
60019;BME280;45870;42.528;26.740;2022-11-15T00:13:37;100355.63;;;16.69;46.68
60019;BME280;45870;42.528;26.740;2022-11-15T00:16:03;100456.19;;;16.66;48.08
60019;BME280;45870;42.528;26.740;2022-11-15T00:18:30;100454.41;;;16.11;49.78
60019;BME280;45870;42.528;26.740;2022-11-15T00:21:02;100450.19;;;16.04;49.66
60019;BME280;45870;42.528;26.740;2022-11-15T00:23:28;100416.63;;;16.20;48.30
60019;BME280;45870;42.528;26.740;2022-11-15T00:25:57;100457.06;;;15.73;50.42
60019;BME280;45870;42.528;26.740;2022-11-15T00:28:24;100446.56;;;16.58;48.48
60019;BME280;45870;42.528;26.740;2022-11-15T00:30:50;100381.88;;;17.07;45.84
60019;BME280;45870;42.528;26.740;2022-11-15T00:33:16;100440.31;;;17.11;46.68
60019;BME280;45870;42.528;26.740;2022-11-15T00:35:42;100440.13;;;17.23;46.61
60019;BME280;45870;42.528;26.740;2022-11-15T00:38:08;100252.78;;;16.33;45.82
60019;BME280;45870;42.528;26.740;2022-11-15T00:40:33;100366.03;;;17.36;44.66
60019;BME280;45870;42.528;26.740;2022-11-15T00:42:59;100440.38;;;17.21;45.96
60019;BME280;45870;42.528;26.740;2022-11-15T00:45:25;100439.91;;;16.97;47.05
60019;BME280;45870;42.528;26.740;2022-11-15T00:47:51;100431.81;;;17.39;45.97
60019;BME280;45870;42.528;26.740;2022-11-15T00:50:17;100420.97;;;17.18;45.94
60019;BME280;45870;42.528;26.740;2022-11-15T00:52:43;100426.31;;;16.54;48.15
60019;BME280;45870;42.528;26.740;2022-11-15T00:55:14;100427.81;;;15.63;50.42
60019;BME280;45870;42.528;26.740;2022-11-15T00:57:40;100428.59;;;14.97;52.32
60019;BME280;45870;42.528;26.740;2022-11-15T01:00:07;100395.88;;;14.92;52.33
60019;BME280;45870;42.528;26.740;2022-11-15T01:02:33;100422.78;;;15.22;52.04
60019;BME280;45870;42.528;26.740;2022-11-15T01:04:59;100417.88;;;15.90;50.24
60019;BME280;45870;42.528;26.740;2022-11-15T01:07:25;100419.94;;;16.22;49.12
60019;BME280;45870;42.528;26.740;2022-11-15T01:09:50;100415.72;;;15.37;51.44
60019;BME280;45870;42.528;26.740;2022-11-15T01:12:16;100411.06;;;15.05;52.55
60019;BME280;45870;42.528;26.740;2022-11-15T01:14:42;100412.44;;;14.74;53.52
60019;BME280;45870;42.528;26.740;2022-11-15T01:17:08;100416.22;;;14.73;53.62
60019;BME280;45870;42.528;26.740;2022-11-15T01:19:33;100414.06;;;15.36;51.69
60019;BME280;45870;42.528;26.740;2022-11-15T01:21:59;100342.25;;;15.37;50.35
60019;BME280;45870;42.528;26.740;2022-11-15T01:24:25;100342.44;;;15.69;49.31
60019;BME280;45870;42.528;26.740;2022-11-15T01:26:51;100413.91;;;16.20;49.53
60019;BME280;45870;42.528;26.740;2022-11-15T01:29:16;100412.69;;;15.89;49.79
60019;BME280;45870;42.528;26.740;2022-11-15T01:31:42;100416.34;;;16.60;48.10
60019;BME280;45870;42.528;26.740;2022-11-15T01:34:08;100412.56;;;15.62;50.22
60019;BME280;45870;42.528;26.740;2022-11-15T01:36:33;100349.50;;;14.65;52.15
60019;BME280;45870;42.528;26.740;2022-11-15T01:38:59;100405.81;;;15.15;52.25
60019;BME280;45870;42.528;26.740;2022-11-15T01:41:28;100398.81;;;15.90;50.20
60019;BME280;45870;42.528;26.740;2022-11-15T01:43:56;100408.50;;;16.68;47.75
60019;BME280;45870;42.528;26.740;2022-11-15T01:46:35;100410.44;;;17.58;45.70
60019;BME280;45870;42.528;26.740;2022-11-15T01:49:05;100400.94;;;17.71;45.14
60019;BME280;45870;42.528;26.740;2022-11-15T01:51:37;100405.38;;;17.82;44.98
60019;BME280;45870;42.528;26.740;2022-11-15T01:54:13;100404.88;;;17.48;45.43
60019;BME280;45870;42.528;26.740;2022-11-15T01:56:46;100401.56;;;17.46;45.41
60019;BME280;45870;42.528;26.740;2022-11-15T01:59:14;100407.25;;;17.39;45.85
60019;BME280;45870;42.528;26.740;2022-11-15T02:01:41;100342.28;;;16.99;46.08
60019;BME280;45870;42.528;26.740;2022-11-15T02:04:14;100387.22;;;16.92;46.77
60019;BME280;45870;42.528;26.740;2022-11-15T02:06:42;100337.91;;;16.98;45.64
60019;BME280;45870;42.528;26.740;2022-11-15T02:09:09;100393.66;;;17.44;45.66
60019;BME280;45870;42.528;26.740;2022-11-15T02:11:36;100397.22;;;17.50;45.52
60019;BME280;45870;42.528;26.740;2022-11-15T02:14:03;100400.72;;;16.33;48.48
60019;BME280;45870;42.528;26.740;2022-11-15T02:16:52;100390.09;;;16.80;46.99
60019;BME280;45870;42.528;26.740;2022-11-15T02:19:47;100345.47;;;16.60;46.79
60019;BME280;45870;42.528;26.740;2022-11-15T02:28:37;100364.97;;;17.42;45.59
60019;BME280;45870;42.528;26.740;2022-11-15T02:34:15;100396.06;;;17.73;45.16
60019;BME280;45870;42.528;26.740;2022-11-15T02:42:05;100391.25;;;16.84;47.67
60019;BME280;45870;42.528;26.740;2022-11-15T02:44:55;100394.22;;;16.83;47.22
60019;BME280;45870;42.528;26.740;2022-11-15T02:47:23;100381.59;;;17.04;47.22
60019;BME280;45870;42.528;26.740;2022-11-15T02:49:52;100315.41;;;16.81;46.57
60019;BME280;45870;42.528;26.740;2022-11-15T02:52:23;100369.31;;;16.26;49.09
60019;BME280;45870;42.528;26.740;2022-11-15T02:54:54;100392.00;;;16.31;48.83
60019;BME280;45870;42.528;26.740;2022-11-15T02:57:33;100384.66;;;16.10;49.31
60019;BME280;45870;42.528;26.740;2022-11-15T03:05:58;100377.44;;;17.65;44.91
60019;BME280;45870;42.528;26.740;2022-11-15T03:08:32;100384.28;;;16.72;46.56
60019;BME280;45870;42.528;26.740;2022-11-15T03:11:09;100236.47;;;16.06;46.99
60019;BME280;45870;42.528;26.740;2022-11-15T03:18:59;100359.00;;;16.28;47.88
60019;BME280;45870;42.528;26.740;2022-11-15T03:21:28;100376.09;;;16.02;49.51
60019;BME280;45870;42.528;26.740;2022-11-15T03:23:55;100325.28;;;16.12;47.82
60019;BME280;45870;42.528;26.740;2022-11-15T03:26:25;100378.22;;;16.65;47.71
60019;BME280;45870;42.528;26.740;2022-11-15T03:28:58;100359.31;;;16.31;48.66
60019;BME280;45870;42.528;26.740;2022-11-15T03:31:30;100372.75;;;16.16;49.05
60019;BME280;45870;42.528;26.740;2022-11-15T03:36:57;100367.69;;;16.73;47.73
60019;BME280;45870;42.528;26.740;2022-11-15T03:39:23;100364.38;;;17.35;45.79
60019;BME280;45870;42.528;26.740;2022-11-15T03:44:51;100366.78;;;16.94;46.73
60019;BME280;45870;42.528;26.740;2022-11-15T03:49:53;100359.06;;;16.11;48.69
60019;BME280;45870;42.528;26.740;2022-11-15T03:52:21;100311.38;;;15.10;50.67
60019;BME280;45870;42.528;26.740;2022-11-15T03:54:55;100306.81;;;15.32;50.17
60019;BME280;45870;42.528;26.740;2022-11-15T03:57:22;100286.94;;;16.14;47.88
60019;BME280;45870;42.528;26.740;2022-11-15T03:59:48;100354.59;;;16.75;47.19
60019;BME280;45870;42.528;26.740;2022-11-15T04:02:14;100349.28;;;16.90;47.11
60019;BME280;45870;42.528;26.740;2022-11-15T04:04:40;100350.44;;;16.68;47.36
60019;BME280;45870;42.528;26.740;2022-11-15T04:07:05;100344.84;;;16.31;48.09
60019;BME280;45870;42.528;26.740;2022-11-15T04:09:31;100346.41;;;16.00;48.74
60019;BME280;45870;42.528;26.740;2022-11-15T04:11:57;100344.00;;;16.04;49.25
60019;BME280;45870;42.528;26.740;2022-11-15T04:14:22;100349.13;;;15.23;50.68
60019;BME280;45870;42.528;26.740;2022-11-15T04:16:48;100346.28;;;15.90;49.24
60019;BME280;45870;42.528;26.740;2022-11-15T04:19:14;100336.28;;;15.95;49.15
60019;BME280;45870;42.528;26.740;2022-11-15T04:21:58;100279.84;;;15.31;49.51
60019;BME280;45870;42.528;26.740;2022-11-15T04:24:42;100274.53;;;15.19;49.97
60019;BME280;45870;42.528;26.740;2022-11-15T04:27:08;100305.16;;;15.31;50.14
60019;BME280;45870;42.528;26.740;2022-11-15T04:29:33;100276.50;;;15.24;50.27
60019;BME280;45870;42.528;26.740;2022-11-15T04:31:59;100278.69;;;14.72;51.23
60019;BME280;45870;42.528;26.740;2022-11-15T04:34:25;100334.03;;;14.82;52.64
60019;BME280;45870;42.528;26.740;2022-11-15T04:36:51;100321.16;;;15.28;50.76
60019;BME280;45870;42.528;26.740;2022-11-15T04:39:35;100327.69;;;14.77;52.40
60019;BME280;45870;42.528;26.740;2022-11-15T04:42:01;100332.31;;;14.76;52.60
60019;BME280;45870;42.528;26.740;2022-11-15T04:44:26;100336.38;;;15.62;50.51
60019;BME280;45870;42.528;26.740;2022-11-15T04:46:52;100278.50;;;14.78;51.27
60019;BME280;45870;42.528;26.740;2022-11-15T04:49:18;100337.22;;;15.46;50.57
60019;BME280;45870;42.528;26.740;2022-11-15T04:51:44;100340.59;;;15.36;50.12
60019;BME280;45870;42.528;26.740;2022-11-15T04:54:10;100327.28;;;16.17;48.81
60019;BME280;45870;42.528;26.740;2022-11-15T04:56:35;100334.09;;;15.37;50.60
60019;BME280;45870;42.528;26.740;2022-11-15T04:59:01;100337.84;;;14.53;52.89
60019;BME280;45870;42.528;26.740;2022-11-15T05:01:27;100239.34;;;13.84;53.79
60019;BME280;45870;42.528;26.740;2022-11-15T05:03:52;100163.38;;;13.56;53.08
60019;BME280;45870;42.528;26.740;2022-11-15T05:06:37;100330.41;;;14.32;54.12
60019;BME280;45870;42.528;26.740;2022-11-15T05:09:03;100335.69;;;15.00;52.25
60019;BME280;45870;42.528;26.740;2022-11-15T05:11:28;100161.13;;;14.43;51.14
60019;BME280;45870;42.528;26.740;2022-11-15T05:13:54;100286.66;;;15.12;51.11
60019;BME280;45870;42.528;26.740;2022-11-15T05:16:20;100287.81;;;15.16;50.55
60019;BME280;45870;42.528;26.740;2022-11-15T05:18:46;100321.63;;;15.41;50.46
60019;BME280;45870;42.528;26.740;2022-11-15T05:21:14;100331.06;;;15.00;51.46
60019;BME280;45870;42.528;26.740;2022-11-15T05:23:40;100331.19;;;15.61;50.33
60019;BME280;45870;42.528;26.740;2022-11-15T05:26:07;100329.06;;;16.06;48.98
60019;BME280;45870;42.528;26.740;2022-11-15T05:28:33;100332.91;;;15.67;49.75
60019;BME280;45870;42.528;26.740;2022-11-15T05:31:01;100264.94;;;14.62;51.58
60019;BME280;45870;42.528;26.740;2022-11-15T05:33:27;100331.84;;;15.34;50.77
60019;BME280;45870;42.528;26.740;2022-11-15T05:36:02;100327.34;;;15.07;51.29
60019;BME280;45870;42.528;26.740;2022-11-15T05:38:30;100316.81;;;14.77;52.35
60019;BME280;45870;42.528;26.740;2022-11-15T05:40:56;100340.56;;;15.70;50.33
60019;BME280;45870;42.528;26.740;2022-11-15T05:43:23;100317.59;;;15.61;50.33
60019;BME280;45870;42.528;26.740;2022-11-15T05:45:49;100343.09;;;15.55;50.67
60019;BME280;45870;42.528;26.740;2022-11-15T05:48:16;100267.72;;;15.77;48.70
60019;BME280;45870;42.528;26.740;2022-11-15T05:50:43;100342.50;;;15.36;50.62
60019;BME280;45870;42.528;26.740;2022-11-15T05:53:12;100338.66;;;15.15;51.24
60019;BME280;45870;42.528;26.740;2022-11-15T05:55:40;100287.47;;;15.89;48.85
60019;BME280;45870;42.528;26.740;2022-11-15T05:58:07;100351.47;;;15.53;49.81
60019;BME280;45870;42.528;26.740;2022-11-15T06:00:33;100349.09;;;15.57;50.13
60019;BME280;45870;42.528;26.740;2022-11-15T06:02:59;100349.09;;;15.40;50.13
60019;BME280;45870;42.528;26.740;2022-11-15T06:05:24;100343.97;;;15.43;50.91
60019;BME280;45870;42.528;26.740;2022-11-15T06:07:50;100347.63;;;14.99;51.60
60019;BME280;45870;42.528;26.740;2022-11-15T06:10:16;100325.28;;;15.30;50.78
60019;BME280;45870;42.528;26.740;2022-11-15T06:12:44;100225.63;;;15.02;49.72
60019;BME280;45870;42.528;26.740;2022-11-15T06:15:10;100355.03;;;15.20;50.32
60019;BME280;45870;42.528;26.740;2022-11-15T06:17:36;100357.53;;;15.05;51.44
60019;BME280;45870;42.528;26.740;2022-11-15T06:20:02;100319.34;;;15.50;49.61
60019;BME280;45870;42.528;26.740;2022-11-15T06:22:28;100360.50;;;15.75;49.80
60019;BME280;45870;42.528;26.740;2022-11-15T06:24:54;100361.34;;;15.76;49.25
60019;BME280;45870;42.528;26.740;2022-11-15T06:27:19;100359.44;;;15.98;49.38
60019;BME280;45870;42.528;26.740;2022-11-15T06:29:45;100368.31;;;15.00;51.74
60019;BME280;45870;42.528;26.740;2022-11-15T06:32:11;100359.25;;;15.83;49.42
60019;BME280;45870;42.528;26.740;2022-11-15T06:34:36;100371.03;;;15.33;50.82
60019;BME280;45870;42.528;26.740;2022-11-15T06:37:02;100255.31;;;15.26;49.56
60019;BME280;45870;42.528;26.740;2022-11-15T06:39:28;100193.19;;;14.96;48.88
60019;BME280;45870;42.528;26.740;2022-11-15T06:41:54;100364.25;;;15.36;51.04
60019;BME280;45870;42.528;26.740;2022-11-15T06:44:19;100369.13;;;15.17;51.58
60019;BME280;45870;42.528;26.740;2022-11-15T06:46:45;100365.09;;;15.36;50.97
60019;BME280;45870;42.528;26.740;2022-11-15T06:49:11;100352.63;;;15.24;51.71
60019;BME280;45870;42.528;26.740;2022-11-15T06:51:36;100351.63;;;15.63;50.01
60019;BME280;45870;42.528;26.740;2022-11-15T06:54:02;100338.38;;;15.50;50.26
60019;BME280;45870;42.528;26.740;2022-11-15T06:56:28;100354.38;;;15.85;50.16
60019;BME280;45870;42.528;26.740;2022-11-15T06:58:55;100355.59;;;15.72;49.99
60019;BME280;45870;42.528;26.740;2022-11-15T07:01:20;100324.38;;;15.58;50.62
60019;BME280;45870;42.528;26.740;2022-11-15T07:03:46;100362.94;;;16.90;47.61
60019;BME280;45870;42.528;26.740;2022-11-15T07:06:12;100367.59;;;16.63;47.79
60019;BME280;45870;42.528;26.740;2022-11-15T07:08:38;100350.88;;;17.18;46.44
60019;BME280;45870;42.528;26.740;2022-11-15T07:11:05;100357.16;;;17.19;46.51
60019;BME280;45870;42.528;26.740;2022-11-15T07:13:32;100315.19;;;16.34;48.08
60019;BME280;45870;42.528;26.740;2022-11-15T07:16:03;100354.34;;;16.50;47.66
60019;BME280;45870;42.528;26.740;2022-11-15T07:18:29;100353.06;;;16.58;47.21
60019;BME280;45870;42.528;26.740;2022-11-15T07:20:55;100355.28;;;16.61;47.31
60019;BME280;45870;42.528;26.740;2022-11-15T07:23:21;100347.59;;;16.31;47.37
60019;BME280;45870;42.528;26.740;2022-11-15T07:25:46;100358.28;;;16.37;47.96
60019;BME280;45870;42.528;26.740;2022-11-15T07:28:12;100370.00;;;16.60;46.99
60019;BME280;45870;42.528;26.740;2022-11-15T07:30:38;100355.97;;;17.41;45.76
60019;BME280;45870;42.528;26.740;2022-11-15T07:33:03;100231.91;;;17.12;44.04
60019;BME280;45870;42.528;26.740;2022-11-15T07:35:29;100359.75;;;17.04;45.05
60019;BME280;45870;42.528;26.740;2022-11-15T07:38:01;100359.66;;;17.20;45.11
60019;BME280;45870;42.528;26.740;2022-11-15T07:40:28;100349.19;;;17.49;44.70
60019;BME280;45870;42.528;26.740;2022-11-15T07:43:03;100350.88;;;18.02;42.57
60019;BME280;45870;42.528;26.740;2022-11-15T07:45:29;100353.25;;;17.83;43.04
60019;BME280;45870;42.528;26.740;2022-11-15T07:47:55;100347.09;;;18.08;42.95
60019;BME280;45870;42.528;26.740;2022-11-15T07:50:23;100355.72;;;18.62;40.77
60019;BME280;45870;42.528;26.740;2022-11-15T07:52:56;100336.34;;;17.86;41.93
60019;BME280;45870;42.528;26.740;2022-11-15T07:55:23;100344.50;;;18.54;41.85
60019;BME280;45870;42.528;26.740;2022-11-15T07:57:49;100345.50;;;17.65;43.94
60019;BME280;45870;42.528;26.740;2022-11-15T08:00:15;100339.69;;;18.09;42.64
60019;BME280;45870;42.528;26.740;2022-11-15T08:02:41;100333.59;;;18.84;40.39
60019;BME280;45870;42.528;26.740;2022-11-15T08:05:07;100345.75;;;18.21;42.54
60019;BME280;45870;42.528;26.740;2022-11-15T08:07:33;100330.44;;;18.20;42.27
60019;BME280;45870;42.528;26.740;2022-11-15T08:09:59;100291.94;;;17.59;43.07
60019;BME280;45870;42.528;26.740;2022-11-15T08:12:28;100334.97;;;17.89;42.45
60019;BME280;45870;42.528;26.740;2022-11-15T08:14:55;100337.38;;;17.75;42.22
60019;BME280;45870;42.528;26.740;2022-11-15T08:17:25;100333.69;;;17.55;43.22
60019;BME280;45870;42.528;26.740;2022-11-15T08:19:51;100338.47;;;18.46;40.66
60019;BME280;45870;42.528;26.740;2022-11-15T08:22:17;100342.91;;;17.95;41.98
60019;BME280;45870;42.528;26.740;2022-11-15T08:24:44;100313.22;;;18.19;40.89
60019;BME280;45870;42.528;26.740;2022-11-15T08:27:09;100346.72;;;19.63;38.57
60019;BME280;45870;42.528;26.740;2022-11-15T08:29:44;100332.34;;;20.01;37.00
60019;BME280;45870;42.528;26.740;2022-11-15T08:32:10;100317.34;;;20.42;35.71
60019;BME280;45870;42.528;26.740;2022-11-15T08:34:37;100342.03;;;20.42;34.96
60019;BME280;45870;42.528;26.740;2022-11-15T08:37:04;100314.44;;;21.35;34.07
60019;BME280;45870;42.528;26.740;2022-11-15T08:39:29;100335.53;;;18.99;37.89
60019;BME280;45870;42.528;26.740;2022-11-15T08:41:55;100337.81;;;20.01;37.46
60019;BME280;45870;42.528;26.740;2022-11-15T08:44:21;100331.19;;;20.12;36.73
60019;BME280;45870;42.528;26.740;2022-11-15T08:46:47;100328.53;;;19.92;36.92
60019;BME280;45870;42.528;26.740;2022-11-15T08:49:13;100212.13;;;18.19;38.21
60019;BME280;45870;42.528;26.740;2022-11-15T08:51:38;100325.94;;;18.76;38.76
60019;BME280;45870;42.528;26.740;2022-11-15T08:54:04;100259.41;;;19.26;37.76
60019;BME280;45870;42.528;26.740;2022-11-15T08:56:30;100297.81;;;20.00;35.81
60019;BME280;45870;42.528;26.740;2022-11-15T08:58:56;100294.41;;;20.67;35.25
60019;BME280;45870;42.528;26.740;2022-11-15T09:01:22;100274.53;;;18.68;39.15
60019;BME280;45870;42.528;26.740;2022-11-15T09:03:48;100263.69;;;19.67;36.76
60019;BME280;45870;42.528;26.740;2022-11-15T09:06:14;100294.91;;;20.74;34.71
60019;BME280;45870;42.528;26.740;2022-11-15T09:08:40;100300.38;;;20.74;34.52
60019;BME280;45870;42.528;26.740;2022-11-15T09:11:08;100290.34;;;21.75;32.92
60019;BME280;45870;42.528;26.740;2022-11-15T09:13:34;100276.63;;;20.60;34.59
60019;BME280;45870;42.528;26.740;2022-11-15T09:16:03;100287.66;;;18.51;39.23
60019;BME280;45870;42.528;26.740;2022-11-15T09:18:29;100284.34;;;18.79;38.17
60019;BME280;45870;42.528;26.740;2022-11-15T09:20:56;100274.69;;;19.57;37.12
60019;BME280;45870;42.528;26.740;2022-11-15T09:23:22;100152.59;;;19.51;35.77
60019;BME280;45870;42.528;26.740;2022-11-15T09:25:48;100271.44;;;21.50;33.73
60019;BME280;45870;42.528;26.740;2022-11-15T09:28:14;100273.53;;;22.42;32.30
60019;BME280;45870;42.528;26.740;2022-11-15T09:30:40;100270.03;;;21.28;33.96
60019;BME280;45870;42.528;26.740;2022-11-15T09:33:07;100263.06;;;22.26;32.41
60019;BME280;45870;42.528;26.740;2022-11-15T09:35:33;100212.25;;;21.57;32.03
60019;BME280;45870;42.528;26.740;2022-11-15T09:37:59;100156.09;;;21.26;32.35
60019;BME280;45870;42.528;26.740;2022-11-15T09:40:25;100258.44;;;21.79;32.22
60019;BME280;45870;42.528;26.740;2022-11-15T09:48:25;100243.63;;;22.55;31.75
60019;BME280;45870;42.528;26.740;2022-11-15T09:50:55;100232.66;;;21.99;33.12
60019;BME280;45870;42.528;26.740;2022-11-15T09:53:42;100217.03;;;21.94;32.57
60019;BME280;45870;42.528;26.740;2022-11-15T09:56:20;100239.63;;;22.28;31.39
60019;BME280;45870;42.528;26.740;2022-11-15T10:01:41;100222.00;;;21.50;33.13
60019;BME280;45870;42.528;26.740;2022-11-15T10:04:10;100220.78;;;20.51;35.36
60019;BME280;45870;42.528;26.740;2022-11-15T10:06:43;100218.66;;;22.32;32.23
60019;BME280;45870;42.528;26.740;2022-11-15T10:09:17;100220.31;;;22.33;32.61
60019;BME280;45870;42.528;26.740;2022-11-15T10:11:44;100105.19;;;21.33;32.58
60019;BME280;45870;42.528;26.740;2022-11-15T10:14:17;100182.25;;;21.18;33.17
60019;BME280;45870;42.528;26.740;2022-11-15T10:16:55;100209.03;;;22.49;31.84
60019;BME280;45870;42.528;26.740;2022-11-15T10:19:37;100221.72;;;22.82;30.70
60019;BME280;45870;42.528;26.740;2022-11-15T10:22:38;100202.16;;;22.32;31.85
60019;BME280;45870;42.528;26.740;2022-11-15T10:25:24;100197.28;;;22.11;32.26
60019;BME280;45870;42.528;26.740;2022-11-15T10:28:03;100152.34;;;20.93;33.74
60019;BME280;45870;42.528;26.740;2022-11-15T10:30:49;100125.94;;;21.82;31.98
60019;BME280;45870;42.528;26.740;2022-11-15T10:33:33;100179.97;;;22.10;31.74
60019;BME280;45870;42.528;26.740;2022-11-15T10:46:47;100165.00;;;21.79;30.93
60019;BME280;45870;42.528;26.740;2022-11-15T10:49:25;100166.88;;;20.36;33.13
60019;BME280;45870;42.528;26.740;2022-11-15T10:54:27;100101.66;;;21.52;31.25
60019;BME280;45870;42.528;26.740;2022-11-15T10:56:56;100078.75;;;20.71;33.10
60019;BME280;45870;42.528;26.740;2022-11-15T10:59:31;100154.25;;;18.58;37.51
60019;BME280;45870;42.528;26.740;2022-11-15T11:01:59;100150.91;;;17.18;40.09
60019;BME280;45870;42.528;26.740;2022-11-15T11:04:25;100081.41;;;17.35;39.69
60019;BME280;45870;42.528;26.740;2022-11-15T11:06:57;100134.34;;;19.21;36.19
60019;BME280;45870;42.528;26.740;2022-11-15T11:11:51;100134.25;;;18.02;38.97
60019;BME280;45870;42.528;26.740;2022-11-15T11:16:55;100095.81;;;17.16;40.59
60019;BME280;45870;42.528;26.740;2022-11-15T11:19:44;100123.59;;;18.05;38.90
60019;BME280;45870;42.528;26.740;2022-11-15T11:22:19;100113.25;;;20.77;33.63
60019;BME280;45870;42.528;26.740;2022-11-15T11:25:08;100115.81;;;19.13;37.73
60019;BME280;45870;42.528;26.740;2022-11-15T11:34:00;100105.34;;;21.61;32.29
60019;BME280;45870;42.528;26.740;2022-11-15T11:36:39;100095.72;;;22.33;31.16
60019;BME280;45870;42.528;26.740;2022-11-15T11:39:33;100097.56;;;21.86;31.67
60019;BME280;45870;42.528;26.740;2022-11-15T11:45:40;100092.25;;;19.17;36.37
60019;BME280;45870;42.528;26.740;2022-11-15T11:48:14;100083.56;;;19.98;35.34
60019;BME280;45870;42.528;26.740;2022-11-15T11:50:42;100085.28;;;20.18;35.10
60019;BME280;45870;42.528;26.740;2022-11-15T11:53:29;100080.13;;;18.59;37.97
60019;BME280;45870;42.528;26.740;2022-11-15T11:56:02;100072.84;;;20.83;34.52
60019;BME280;45870;42.528;26.740;2022-11-15T11:58:35;100073.31;;;22.39;31.44
60019;BME280;45870;42.528;26.740;2022-11-15T12:01:22;100062.28;;;22.12;31.11
60019;BME280;45870;42.528;26.740;2022-11-15T12:03:59;100062.25;;;19.90;34.71
60019;BME280;45870;42.528;26.740;2022-11-15T12:06:36;100057.97;;;18.66;37.62
60019;BME280;45870;42.528;26.740;2022-11-15T12:09:30;100059.03;;;21.73;32.10
60019;BME280;45870;42.528;26.740;2022-11-15T12:12:25;100050.72;;;21.59;32.14
60019;BME280;45870;42.528;26.740;2022-11-15T12:15:01;100043.00;;;21.61;32.59
60019;BME280;45870;42.528;26.740;2022-11-15T12:17:30;100043.81;;;21.62;31.86
60019;BME280;45870;42.528;26.740;2022-11-15T12:19:59;100038.41;;;22.40;31.27
60019;BME280;45870;42.528;26.740;2022-11-15T12:22:29;100037.97;;;23.28;29.32
60019;BME280;45870;42.528;26.740;2022-11-15T12:25:13;100037.00;;;21.59;31.94
60019;BME280;45870;42.528;26.740;2022-11-15T12:30:21;99961.88;;;19.70;35.07
60019;BME280;45870;42.528;26.740;2022-11-15T12:32:52;100026.47;;;19.76;35.27
60019;BME280;45870;42.528;26.740;2022-11-15T12:35:27;100031.91;;;19.42;36.26
60019;BME280;45870;42.528;26.740;2022-11-15T12:37:54;100022.66;;;19.28;36.50
60019;BME280;45870;42.528;26.740;2022-11-15T12:40:26;100012.81;;;20.58;33.97
60019;BME280;45870;42.528;26.740;2022-11-15T12:45:41;100016.00;;;18.01;38.72
60019;BME280;45870;42.528;26.740;2022-11-15T12:53:26;100018.56;;;19.26;36.86
60019;BME280;45870;42.528;26.740;2022-11-15T12:56:09;100018.34;;;21.00;33.94
60019;BME280;45870;42.528;26.740;2022-11-15T12:58:51;100018.75;;;19.39;36.56
60019;BME280;45870;42.528;26.740;2022-11-15T13:07:03;99952.13;;;17.87;38.89
60019;BME280;45870;42.528;26.740;2022-11-15T13:11:59;99993.22;;;18.41;38.03
60019;BME280;45870;42.528;26.740;2022-11-15T13:14:48;99993.88;;;18.87;38.55
60019;BME280;45870;42.528;26.740;2022-11-15T13:17:28;99985.56;;;19.12;37.08
60019;BME280;45870;42.528;26.740;2022-11-15T13:22:44;99986.94;;;19.10;37.45
60019;BME280;45870;42.528;26.740;2022-11-15T13:27:51;99971.19;;;17.46;40.58
60019;BME280;45870;42.528;26.740;2022-11-15T13:30:22;99972.78;;;18.23;38.35
60019;BME280;45870;42.528;26.740;2022-11-15T13:32:49;99976.59;;;18.27;38.81
60019;BME280;45870;42.528;26.740;2022-11-15T13:35:25;99974.97;;;17.10;41.86
60019;BME280;45870;42.528;26.740;2022-11-15T13:37:53;99973.31;;;18.30;38.90
60019;BME280;45870;42.528;26.740;2022-11-15T13:40:28;99972.63;;;19.23;37.25
60019;BME280;45870;42.528;26.740;2022-11-15T13:42:57;99969.25;;;18.92;37.58
60019;BME280;45870;42.528;26.740;2022-11-15T13:45:24;99967.78;;;18.56;38.50
60019;BME280;45870;42.528;26.740;2022-11-15T13:47:57;99968.75;;;18.01;39.17
60019;BME280;45870;42.528;26.740;2022-11-15T13:50:32;99962.22;;;17.66;40.09
60019;BME280;45870;42.528;26.740;2022-11-15T13:53:02;99958.94;;;17.34;41.09
60019;BME280;45870;42.528;26.740;2022-11-15T13:55:30;99964.41;;;16.52;42.07
60019;BME280;45870;42.528;26.740;2022-11-15T13:58:00;99920.41;;;17.91;39.70
60019;BME280;45870;42.528;26.740;2022-11-15T14:03:21;99949.66;;;17.70;40.72
60019;BME280;45870;42.528;26.740;2022-11-15T14:06:12;99949.63;;;17.80;40.12
60019;BME280;45870;42.528;26.740;2022-11-15T14:08:58;99958.31;;;17.07;41.51
60019;BME280;45870;42.528;26.740;2022-11-15T14:11:24;99960.81;;;17.18;41.72
60019;BME280;45870;42.528;26.740;2022-11-15T14:16:44;99946.13;;;17.65;41.16
60019;BME280;45870;42.528;26.740;2022-11-15T14:19:33;99931.03;;;18.08;39.31
60019;BME280;45870;42.528;26.740;2022-11-15T14:22:19;99931.81;;;18.82;38.30
60019;BME280;45870;42.528;26.740;2022-11-15T14:27:31;99919.00;;;18.09;39.48
60019;BME280;45870;42.528;26.740;2022-11-15T14:29:57;99920.50;;;18.55;38.56
60019;BME280;45870;42.528;26.740;2022-11-15T14:32:26;99924.81;;;17.26;41.19
60019;BME280;45870;42.528;26.740;2022-11-15T14:35:00;99925.91;;;17.71;40.57
60019;BME280;45870;42.528;26.740;2022-11-15T14:37:31;99914.81;;;18.36;39.14